createdAt,value
2023-04-01T00:01:03.234Z,98833.66
2023-04-01T00:03:30.575Z,98834.66
2023-04-01T00:05:59.554Z,98833.13
2023-04-01T00:08:27.212Z,98842.66
2023-04-01T00:10:54.012Z,98838.28
2023-04-01T00:13:21.057Z,98835.78
2023-04-01T00:15:49.470Z,98830.72
2023-04-01T00:18:16.472Z,98823.72
2023-04-01T00:20:51.391Z,98831.72
2023-04-01T00:23:19.982Z,98825.69
2023-04-01T00:25:48.766Z,98829.06
2023-04-01T00:28:19.804Z,98831.03
2023-04-01T00:30:46.788Z,98816.28
2023-04-01T00:33:13.402Z,98820.34
2023-04-01T00:35:41.364Z,98834.13
2023-04-01T00:38:07.762Z,98825.69
2023-04-01T00:40:37.337Z,98826.69
2023-04-01T00:43:10.799Z,98831.88
2023-04-01T00:45:40.434Z,98819.78
2023-04-01T00:48:16.972Z,98810.25
2023-04-01T00:50:48.602Z,98823.16
2023-04-01T00:53:17.089Z,98815.53
2023-04-01T00:55:51.075Z,98815.84
2023-04-01T00:58:21.251Z,98813.63
2023-04-01T01:00:49.850Z,98822.50
2023-04-01T01:03:16.807Z,98814.75
2023-04-01T01:06:08.626Z,98821.38
2023-04-01T01:08:53.295Z,98831.22
2023-04-01T01:11:33.625Z,98813.09
2023-04-01T01:14:27.857Z,98818.25
2023-04-01T01:17:16.514Z,98809.03
2023-04-01T01:20:25.397Z,98810.69
2023-04-01T01:23:08.375Z,98811.69
2023-04-01T01:26:07.016Z,98811.69
2023-04-01T01:28:58.020Z,98806.59
2023-04-01T01:31:37.568Z,98805.22
2023-04-01T01:34:22.895Z,98807.03
2023-04-01T01:36:57.349Z,98802.97
2023-04-01T01:39:28.812Z,98800.19
2023-04-01T01:41:58.278Z,98804.81
2023-04-01T01:44:27.592Z,98794.28
2023-04-01T01:46:54.061Z,98798.78
2023-04-01T01:49:21.048Z,98789.94
2023-04-01T01:51:48.981Z,98789.81
2023-04-01T01:54:17.458Z,98793.84
2023-04-01T01:56:48.443Z,98789.31
2023-04-01T01:59:17.012Z,98789.94
2023-04-01T02:01:49.482Z,98783.47
2023-04-01T02:04:18.121Z,98787.25
2023-04-01T02:06:54.622Z,98784.22
2023-04-01T02:09:21.400Z,98785.81
2023-04-01T02:11:53.068Z,98788.50
2023-04-01T02:14:26.951Z,98787.97
2023-04-01T02:16:56.767Z,98778.03
2023-04-01T02:19:30.426Z,98781.81
2023-04-01T02:22:00.502Z,98798.25
2023-04-01T02:24:30.928Z,98790.06
2023-04-01T02:26:57.344Z,98788.09
2023-04-01T02:29:28.803Z,98791.59
2023-04-01T02:31:55.897Z,98791.38
2023-04-01T02:34:23.787Z,98797.94
2023-04-01T02:36:51.353Z,98789.25
2023-04-01T02:39:17.986Z,98788.25
2023-04-01T02:41:46.212Z,98804.56
2023-04-01T02:44:14.431Z,98794.56
2023-04-01T02:46:41.504Z,98808.94
2023-04-01T02:49:08.230Z,98806.25
2023-04-01T02:51:35.015Z,98802.59
2023-04-01T02:54:01.851Z,98796.94
2023-04-01T02:56:28.974Z,98803.72
2023-04-01T02:58:55.559Z,98809.59
2023-04-01T03:01:22.379Z,98799.09
2023-04-01T03:03:48.929Z,98803.16
2023-04-01T03:06:16.747Z,98810.59
2023-04-01T03:08:43.448Z,98812.25
2023-04-01T03:11:11.236Z,98809.50
2023-04-01T03:13:38.000Z,98817.59
2023-04-01T03:16:04.787Z,98825.91
2023-04-01T03:18:31.230Z,98824.78
2023-04-01T03:20:57.806Z,98821.41
2023-04-01T03:23:25.158Z,98823.25
2023-04-01T03:25:51.871Z,98819.75
2023-04-01T03:28:18.367Z,98824.94
2023-04-01T03:30:44.852Z,98827.63
2023-04-01T03:33:11.496Z,98829.28
2023-04-01T03:35:37.910Z,98826.91
2023-04-01T03:38:04.443Z,98829.84
2023-04-01T03:40:30.974Z,98825.66
2023-04-01T03:42:57.493Z,98830.28
2023-04-01T03:45:24.008Z,98829.97
2023-04-01T03:47:50.581Z,98829.69
2023-04-01T03:50:17.101Z,98821.53
2023-04-01T03:52:43.477Z,98833.59
2023-04-01T03:55:09.883Z,98836.94
2023-04-01T03:57:38.658Z,98830.94
2023-04-01T04:00:14.903Z,98830.19
2023-04-01T04:02:43.668Z,98836.38
2023-04-01T04:05:14.149Z,98836.94
2023-04-01T04:07:40.646Z,98838.91
2023-04-01T04:10:08.815Z,98836.06
2023-04-01T04:12:35.481Z,98837.47
2023-04-01T04:15:02.137Z,98837.47
2023-04-01T04:17:28.530Z,98840.72
2023-04-01T04:19:55.095Z,98840.28
2023-04-01T04:22:21.848Z,98835.38
2023-04-01T04:24:48.206Z,98840.03
2023-04-01T04:27:14.590Z,98844.00
2023-04-01T04:30:01.334Z,98843.28
2023-04-01T04:32:29.331Z,98845.66
2023-04-01T04:34:56.489Z,98850.41
2023-04-01T04:37:22.849Z,98852.00
2023-04-01T04:39:49.416Z,98854.06
2023-04-01T04:42:16.175Z,98844.38
2023-04-01T04:44:42.623Z,98857.56
2023-04-01T04:47:09.076Z,98852.78
2023-04-01T04:49:36.387Z,98854.66
2023-04-01T04:52:07.398Z,98866.19
2023-04-01T04:54:33.751Z,98858.75
2023-04-01T04:57:02.043Z,98856.63
2023-04-01T04:59:32.743Z,98862.25
2023-04-01T05:02:05.197Z,98864.91
2023-04-01T05:04:36.082Z,98862.81
2023-04-01T05:07:02.504Z,98859.75
2023-04-01T05:09:29.491Z,98869.94
2023-04-01T05:11:56.106Z,98865.44
2023-04-01T05:14:24.156Z,98862.63
2023-04-01T05:16:59.690Z,98862.06
2023-04-01T05:19:26.225Z,98869.56
2023-04-01T05:21:53.815Z,98868.41
2023-04-01T05:24:20.314Z,98875.44
2023-04-01T05:26:47.243Z,98875.72
2023-04-01T05:29:13.612Z,98877.44
2023-04-01T05:31:41.194Z,98876.44
2023-04-01T05:34:07.976Z,98881.78
2023-04-01T05:36:35.118Z,98877.88
2023-04-01T05:39:01.458Z,98879.56
2023-04-01T05:41:28.423Z,98879.28
2023-04-01T05:43:55.013Z,98885.75
2023-04-01T05:46:47.573Z,98888.69
2023-04-01T05:49:27.682Z,98881.38
2023-04-01T05:51:55.832Z,98882.06
2023-04-01T05:54:22.288Z,98889.22
2023-04-01T05:56:49.001Z,98892.50
2023-04-01T05:59:16.129Z,98904.69
2023-04-01T06:01:42.618Z,98890.34
2023-04-01T06:04:14.928Z,98898.63
2023-04-01T06:06:41.328Z,98900.91
2023-04-01T06:09:17.158Z,98899.63
2023-04-01T06:12:01.681Z,98897.34
2023-04-01T06:14:42.703Z,98901.69
2023-04-01T06:17:40.954Z,98911.41
2023-04-01T06:20:07.585Z,98912.38
2023-04-01T06:22:58.513Z,98915.22
2023-04-01T06:25:32.906Z,98912.16
2023-04-01T06:28:08.468Z,98912.81
2023-04-01T06:30:44.595Z,98910.56
2023-04-01T06:33:57.000Z,98914.81
2023-04-01T06:36:38.787Z,98922.56
2023-04-01T06:39:23.468Z,98920.28
2023-04-01T06:42:10.230Z,98917.91
2023-04-01T06:44:51.112Z,98922.81
2023-04-01T06:48:04.994Z,98923.66
2023-04-01T06:51:00.782Z,98922.22
2023-04-01T06:54:15.760Z,98920.69
2023-04-01T06:57:06.624Z,98925.91
2023-04-01T06:59:36.069Z,98931.34
2023-04-01T07:02:16.346Z,98931.78
2023-04-01T07:04:49.381Z,98933.72
2023-04-01T07:07:35.571Z,98940.06
2023-04-01T07:10:15.372Z,98938.81
2023-04-01T07:13:16.858Z,98936.41
2023-04-01T07:16:09.508Z,98940.50
2023-04-01T07:18:49.292Z,98941.75
2023-04-01T07:21:26.315Z,98945.56
2023-04-01T07:24:01.339Z,98946.41
2023-04-01T07:26:33.815Z,98946.13
2023-04-01T07:29:13.214Z,98947.09
2023-04-01T07:32:07.885Z,98954.53
2023-04-01T07:34:57.983Z,98946.53
2023-04-01T07:37:38.808Z,98953.13
2023-04-01T07:40:24.307Z,98955.97
2023-04-01T07:43:19.124Z,98959.19
2023-04-01T07:46:01.662Z,98955.81
2023-04-01T07:48:39.486Z,98969.31
2023-04-01T07:51:27.708Z,98968.34
2023-04-01T07:54:09.184Z,98971.56
2023-04-01T07:56:49.684Z,98975.78
2023-04-01T07:59:40.517Z,98972.56
2023-04-01T08:02:41.346Z,98975.22
2023-04-01T08:05:19.874Z,98972.00
2023-04-01T08:08:08.275Z,98977.34
2023-04-01T08:11:03.844Z,98985.66
2023-04-01T08:14:18.592Z,98989.00
2023-04-01T08:17:08.594Z,98998.84
2023-04-01T08:20:02.746Z,99002.47
2023-04-01T08:22:41.447Z,99009.53
2023-04-01T08:25:22.796Z,98998.28
2023-04-01T08:28:21.779Z,99016.69
2023-04-01T08:30:54.000Z,98999.13
2023-04-01T08:33:23.142Z,99005.03
2023-04-01T08:36:00.665Z,99005.84
2023-04-01T08:38:37.060Z,99019.81
2023-04-01T08:41:31.509Z,99022.91
2023-04-01T08:44:31.927Z,99026.41
2023-04-01T08:47:10.735Z,99029.19
2023-04-01T08:49:55.941Z,99031.19
2023-04-01T08:52:59.584Z,99033.56
2023-04-01T08:55:32.948Z,99037.91
2023-04-01T08:58:33.342Z,99037.06
2023-04-01T09:01:38.346Z,99049.59
2023-04-01T09:04:09.120Z,99042.41
2023-04-01T09:06:51.757Z,99051.13
2023-04-01T09:09:31.096Z,99052.13
2023-04-01T09:12:16.350Z,99058.00
2023-04-01T09:15:10.690Z,99062.09
2023-04-01T09:17:50.303Z,99055.63
2023-04-01T09:20:42.797Z,99058.56
2023-04-01T09:23:30.222Z,99062.38
2023-04-01T09:26:11.789Z,99069.38
2023-04-01T09:28:56.879Z,99071.91
2023-04-01T09:31:52.372Z,99076.66
2023-04-01T09:34:56.005Z,99083.41
2023-04-01T09:37:52.554Z,99083.81
2023-04-01T09:40:53.806Z,99086.22
2023-04-01T09:43:59.039Z,99079.63
2023-04-01T09:46:53.981Z,99095.06
2023-04-01T09:49:32.854Z,99093.25
2023-04-01T09:52:28.722Z,99092.69
2023-04-01T09:55:33.946Z,99098.19
2023-04-01T09:58:32.415Z,99106.44
2023-04-01T10:01:40.347Z,99108.59
2023-04-01T10:04:34.402Z,99110.13
2023-04-01T10:07:30.379Z,99103.78
2023-04-01T10:10:24.003Z,99114.03
2023-04-01T10:13:14.719Z,99106.63
2023-04-01T10:16:03.595Z,99122.94
2023-04-01T10:18:42.537Z,99115.16
2023-04-01T10:21:46.590Z,99118.97
2023-04-01T10:24:12.985Z,99119.78
2023-04-01T10:27:02.436Z,99123.13
2023-04-01T10:30:02.660Z,99123.75
2023-04-01T10:32:56.894Z,99119.97
2023-04-01T10:36:01.378Z,99133.44
2023-04-01T10:39:04.027Z,99134.03
2023-04-01T10:41:48.657Z,99126.00
2023-04-01T10:45:02.695Z,99136.69
2023-04-01T10:48:13.090Z,99126.56
2023-04-01T10:50:49.017Z,99134.44
2023-04-01T10:53:40.306Z,99134.56
2023-04-01T10:56:39.984Z,99142.44
2023-04-01T10:59:40.258Z,99151.31
2023-04-01T11:02:48.022Z,99149.47
2023-04-01T11:05:52.161Z,99141.44
2023-04-01T11:08:47.273Z,99160.31
2023-04-01T11:11:29.295Z,99154.28
2023-04-01T11:14:17.725Z,99155.25
2023-04-01T11:16:44.091Z,99155.53
2023-04-01T11:19:48.001Z,99162.81
2023-04-01T11:22:28.098Z,99170.84
2023-04-01T11:25:33.193Z,99172.66
2023-04-01T11:28:28.629Z,99179.41
2023-04-01T11:31:06.701Z,99179.09
2023-04-01T11:33:53.089Z,99189.94
2023-04-01T11:36:34.957Z,99188.25
2023-04-01T11:39:30.408Z,99193.31
2023-04-01T11:42:21.072Z,99197.13
2023-04-01T11:45:21.179Z,99193.06
2023-04-01T11:48:03.956Z,99200.09
2023-04-01T11:51:00.776Z,99203.19
2023-04-01T11:53:49.529Z,99203.09
2023-04-01T11:56:54.375Z,99213.19
2023-04-01T11:59:49.776Z,99213.06
2023-04-01T12:02:34.790Z,99212.34
2023-04-01T12:05:19.865Z,99224.72
2023-04-01T12:07:55.570Z,99227.56
2023-04-01T12:10:32.760Z,99232.75
2023-04-01T12:13:28.835Z,99225.72
2023-04-01T12:16:29.375Z,99235.41
2023-04-01T12:19:27.191Z,99238.09
2023-04-01T12:22:32.574Z,99239.22
2023-04-01T12:25:24.030Z,99244.84
2023-04-01T12:28:01.317Z,99254.28
2023-04-01T12:30:49.639Z,99252.13
2023-04-01T12:33:19.083Z,99260.88
2023-04-01T12:36:11.117Z,99258.19
2023-04-01T12:39:09.056Z,99263.00
2023-04-01T12:41:52.976Z,99265.94
2023-04-01T12:44:40.805Z,99274.09
2023-04-01T12:47:32.746Z,99275.97
2023-04-01T12:50:14.424Z,99282.84
2023-04-01T12:53:04.669Z,99275.38
2023-04-01T12:55:40.585Z,99276.94
2023-04-01T12:58:39.312Z,99287.63
2023-04-01T13:01:23.877Z,99291.31
2023-04-01T13:04:06.640Z,99300.44
2023-04-01T13:07:01.306Z,99303.13
2023-04-01T13:09:39.525Z,99300.88
2023-04-01T13:12:48.950Z,99302.13
2023-04-01T13:15:36.749Z,99302.97
2023-04-01T13:18:15.414Z,99318.59
2023-04-01T13:21:03.613Z,99318.47
2023-04-01T13:23:39.198Z,99319.88
2023-04-01T13:26:28.257Z,99326.19
2023-04-01T13:29:18.564Z,99321.25
2023-04-01T13:32:03.204Z,99327.75
2023-04-01T13:34:41.015Z,99330.84
2023-04-01T13:37:23.936Z,99336.34
2023-04-01T13:40:21.337Z,99328.59
2023-04-01T13:42:58.437Z,99333.38
2023-04-01T13:45:50.212Z,99339.16
2023-04-01T13:48:28.253Z,99333.94
2023-04-01T13:51:09.488Z,99347.59
2023-04-01T13:53:52.420Z,99340.69
2023-04-01T13:56:49.864Z,99349.44
2023-04-01T14:00:11.774Z,99358.72
2023-04-01T14:03:08.285Z,99358.41
2023-04-01T14:05:55.613Z,99362.09
2023-04-01T14:08:48.103Z,99362.94
2023-04-01T14:11:17.460Z,99366.91
2023-04-01T14:13:57.106Z,99364.06
2023-04-01T14:17:05.904Z,99371.13
2023-04-01T14:19:48.277Z,99374.50
2023-04-01T14:22:21.125Z,99379.97
2023-04-01T14:25:26.128Z,99383.66
2023-04-01T14:28:04.301Z,99391.38
2023-04-01T14:30:53.741Z,99388.72
2023-04-01T14:33:43.989Z,99391.38
2023-04-01T14:36:39.227Z,99398.72
2023-04-01T14:39:20.024Z,99397.56
2023-04-01T14:42:22.044Z,99396.16
2023-04-01T14:45:26.536Z,99397.28
2023-04-01T14:47:57.978Z,99394.06
2023-04-01T14:50:28.566Z,99398.13
2023-04-01T14:53:23.928Z,99406.44
2023-04-01T14:55:57.265Z,99406.16
2023-04-01T14:58:27.115Z,99414.06
2023-04-01T15:01:15.566Z,99411.66
2023-04-01T15:04:09.644Z,99417.44
2023-04-01T15:07:12.342Z,99425.88
2023-04-01T15:10:15.165Z,99422.91
2023-04-01T15:13:06.464Z,99420.94
2023-04-01T15:15:59.685Z,99424.91
2023-04-01T15:18:49.229Z,99441.81
2023-04-01T15:21:28.430Z,99440.25
2023-04-01T15:24:08.872Z,99445.31
2023-04-01T15:26:59.860Z,99450.09
2023-04-01T15:29:34.231Z,99448.00
2023-04-01T15:32:18.684Z,99449.53
2023-04-01T15:35:08.786Z,99452.94
2023-04-01T15:38:06.539Z,99457.03
2023-04-01T15:40:36.176Z,99465.22
2023-04-01T15:43:27.452Z,99471.53
2023-04-01T15:46:14.842Z,99472.38
2023-04-01T15:48:51.806Z,99469.53
2023-04-01T15:51:18.878Z,99473.06
2023-04-01T15:53:57.628Z,99470.53
2023-04-01T15:57:06.931Z,99476.00
2023-04-01T15:59:51.591Z,99477.72
2023-04-01T16:02:33.920Z,99479.38
2023-04-01T16:05:06.527Z,99484.31
2023-04-01T16:07:48.093Z,99499.25
2023-04-01T16:10:29.850Z,99490.38
2023-04-01T16:13:34.242Z,99496.84
2023-04-01T16:16:09.651Z,99489.47
2023-04-01T16:19:08.195Z,99500.31
2023-04-01T16:21:44.162Z,99499.22
2023-04-01T16:24:33.672Z,99507.50
2023-04-01T16:27:11.448Z,99501.56
2023-04-01T16:30:03.980Z,99505.50
2023-04-01T16:32:54.545Z,99507.59
2023-04-01T16:35:42.347Z,99512.97
2023-04-01T16:38:26.113Z,99512.97
2023-04-01T16:41:15.588Z,99518.03
2023-04-01T16:43:47.896Z,99522.81
2023-04-01T16:46:39.422Z,99533.34
2023-04-01T16:49:11.749Z,99530.56
2023-04-01T16:51:52.930Z,99537.75
2023-04-01T16:54:21.979Z,99549.41
2023-04-01T16:57:17.007Z,99547.84
2023-04-01T17:00:04.375Z,99548.13
2023-04-01T17:02:48.163Z,99556.25
2023-04-01T17:05:14.588Z,99561.88
2023-04-01T17:08:28.530Z,99572.47
2023-04-01T17:11:06.927Z,99565.69
2023-04-01T17:13:46.953Z,99575.13
2023-04-01T17:16:26.097Z,99585.94
2023-04-01T17:19:04.687Z,99587.06
2023-04-01T17:21:47.834Z,99593.25
2023-04-01T17:24:39.177Z,99597.63
2023-04-01T17:27:23.452Z,99604.16
2023-04-01T17:30:31.908Z,99607.78
2023-04-01T17:33:18.950Z,99605.94
2023-04-01T17:36:03.518Z,99608.22
2023-04-01T17:38:43.598Z,99609.50
2023-04-01T17:41:26.380Z,99615.69
2023-04-01T17:44:34.822Z,99612.16
2023-04-01T17:47:26.384Z,99626.50
2023-04-01T17:49:58.865Z,99627.50
2023-04-01T17:52:49.531Z,99621.56
2023-04-01T17:55:18.818Z,99621.69
2023-04-01T17:58:14.161Z,99635.91
2023-04-01T18:01:09.317Z,99638.13
2023-04-01T18:03:58.542Z,99634.59
2023-04-01T18:06:41.490Z,99644.19
2023-04-01T18:09:41.850Z,99650.38
2023-04-01T18:12:41.805Z,99655.59
2023-04-01T18:15:32.430Z,99669.44
2023-04-01T18:18:10.784Z,99660.94
2023-04-01T18:20:54.230Z,99674.19
2023-04-01T18:23:33.085Z,99681.22
2023-04-01T18:26:19.651Z,99688.53
2023-04-01T18:29:04.956Z,99691.91
2023-04-01T18:31:41.463Z,99699.34
2023-04-01T18:34:41.587Z,99705.16
2023-04-01T18:37:39.739Z,99704.44
2023-04-01T18:40:27.249Z,99709.28
2023-04-01T18:43:30.472Z,99712.06
2023-04-01T18:46:17.795Z,99724.66
2023-04-01T18:49:14.299Z,99724.28
2023-04-01T18:51:58.492Z,99735.81
2023-04-01T18:54:41.850Z,99739.22
2023-04-01T18:57:20.887Z,99746.84
2023-04-01T19:00:05.421Z,99752.75
2023-04-01T19:02:49.666Z,99763.09
2023-04-01T19:05:24.859Z,99763.41
2023-04-01T19:07:56.877Z,99765.84
2023-04-01T19:10:46.866Z,99779.44
2023-04-01T19:13:24.039Z,99789.19
2023-04-01T19:16:08.674Z,99787.84
2023-04-01T19:18:49.929Z,99783.53
2023-04-01T19:21:36.594Z,99798.84
2023-04-01T19:24:38.205Z,99812.94
2023-04-01T19:27:25.345Z,99818.19
2023-04-01T19:30:10.446Z,99823.19
2023-04-01T19:33:19.480Z,99827.13
2023-04-01T19:36:06.978Z,99825.41
2023-04-01T19:38:43.840Z,99830.66
2023-04-01T19:41:24.237Z,99837.94
2023-04-01T19:44:16.548Z,99838.84
2023-04-01T19:46:55.384Z,99851.09
2023-04-01T19:49:34.123Z,99850.63
2023-04-01T19:52:22.493Z,99857.91
2023-04-01T19:55:00.651Z,99867.88
2023-04-01T19:57:48.709Z,99873.38
2023-04-01T20:00:30.931Z,99878.56
2023-04-01T20:03:29.116Z,99890.34
2023-04-01T20:06:07.586Z,99887.78
2023-04-01T20:08:46.721Z,99898.25
2023-04-01T20:11:18.869Z,99908.06
2023-04-01T20:14:06.974Z,99913.91
2023-04-01T20:16:59.478Z,99914.63
2023-04-01T20:19:40.255Z,99910.75
2023-04-01T20:22:26.035Z,99927.34
2023-04-01T20:24:53.857Z,99929.63
2023-04-01T20:27:26.752Z,99939.47
2023-04-01T20:30:14.816Z,99945.41
2023-04-01T20:33:18.871Z,99957.91
2023-04-01T20:36:01.374Z,99953.41
2023-04-01T20:38:53.770Z,99965.44
2023-04-01T20:42:01.345Z,99971.31
2023-04-01T20:44:43.341Z,99973.63
2023-04-01T20:47:28.205Z,99980.25
2023-04-01T20:50:06.703Z,99982.91
2023-04-01T20:52:42.440Z,99990.28
2023-04-01T20:55:45.770Z,99990.38
2023-04-01T20:58:43.889Z,99994.88
2023-04-01T21:01:35.368Z,100015.22
2023-04-01T21:04:19.395Z,100011.16
2023-04-01T21:07:15.585Z,100024.50
2023-04-01T21:09:56.720Z,100026.88
2023-04-01T21:12:41.712Z,100030.91
2023-04-01T21:15:31.588Z,100047.38
2023-04-01T21:18:17.851Z,100056.66
2023-04-01T21:21:00.778Z,100048.94
2023-04-01T21:23:55.374Z,100062.25
2023-04-01T21:26:40.181Z,100062.16
2023-04-01T21:29:26.165Z,100079.97
2023-04-01T21:32:11.182Z,100079.13
2023-04-01T21:35:16.118Z,100087.97
2023-04-01T21:37:53.489Z,100097.78
2023-04-01T21:40:52.127Z,100105.88
2023-04-01T21:44:06.913Z,100100.78
2023-04-01T21:46:55.972Z,100112.38
2023-04-01T21:49:40.265Z,100124.00
2023-04-01T21:52:35.261Z,100138.69
2023-04-01T21:55:35.407Z,100141.44
2023-04-01T21:58:29.923Z,100158.00
2023-04-01T22:01:07.999Z,100154.75
2023-04-01T22:03:41.207Z,100161.38
2023-04-01T22:07:01.089Z,100172.75
2023-04-01T22:09:39.229Z,100172.03
2023-04-01T22:12:19.029Z,100182.34
2023-04-01T22:14:51.378Z,100182.91
2023-04-01T22:17:37.669Z,100199.81
2023-04-01T22:20:27.880Z,100202.06
2023-04-01T22:23:28.267Z,100204.72
2023-04-01T22:26:17.349Z,100215.66
2023-04-01T22:28:56.047Z,100224.06
2023-04-01T22:31:51.211Z,100228.38
2023-04-01T22:34:36.537Z,100234.75
2023-04-01T22:37:05.585Z,100237.91
2023-04-01T22:39:37.964Z,100246.94
2023-04-01T22:42:16.531Z,100249.41
2023-04-01T22:45:04.242Z,100257.97
2023-04-01T22:47:45.565Z,100260.84
2023-04-01T22:50:22.946Z,100268.25
2023-04-01T22:52:59.692Z,100274.25
2023-04-01T22:55:33.958Z,100281.78
2023-04-01T22:58:12.231Z,100281.28
2023-04-01T23:00:44.098Z,100292.59
2023-04-01T23:03:31.163Z,100287.19
2023-04-01T23:06:00.403Z,100301.63
2023-04-01T23:09:03.801Z,100300.28
2023-04-01T23:11:45.544Z,100301.53
2023-04-01T23:14:21.061Z,100316.91
2023-04-01T23:16:58.031Z,100324.06
2023-04-01T23:19:42.729Z,100327.44
2023-04-01T23:22:22.456Z,100326.72
2023-04-01T23:24:59.804Z,100335.91
2023-04-01T23:27:29.241Z,100336.28
2023-04-01T23:29:55.732Z,100342.94
2023-04-01T23:32:27.145Z,100354.91
2023-04-01T23:34:57.967Z,100362.88
2023-04-01T23:37:25.466Z,100359.69
2023-04-01T23:39:58.156Z,100363.66
2023-04-01T23:42:28.334Z,100370.69
2023-04-01T23:44:58.038Z,100378.56
2023-04-01T23:47:34.606Z,100382.78
2023-04-01T23:50:18.622Z,100385.69
2023-04-01T23:52:49.368Z,100396.81
2023-04-01T23:55:22.665Z,100400.63
2023-04-01T23:58:17.660Z,100407.81
